Coalfield, TN (37719)

7:05 AM EST on December 06, 2016 (GMT -0500)
Coalfield | | Change Station

Elev 1102 ft 36.03 °N, 84.40 °W | Updated 53 seconds ago

Rain
Rain Mist
51.6 °F
Feels Like 51.6 °F
N
0.9
Wind Variable Wind from NNE
Gusts 2.5 mph

Today
High -- | Low -- °F
--% Chance of Precip.
Yesterday
High -- | Low -- °F
Precip. -- in
Pressure 29.73 in
Visibility 3.0 miles
Clouds Few 800 ft
Scattered Clouds 3100 ft
Overcast 3900 ft
Dew Point 51 °F
Humidity 99%
Rainfall 1.19 in
Snow Depth Not available.
7:34 AM 5:23 PM
Waxing Crescent, 41% visible
METAR KOQT 061153Z AUTO 00000KT 3SM RA BR FEW008 SCT031 OVC039 11/09 A2973 RMK AO2 SLP068 P0018 60067 70067 T01060094 10106 20094 56015
Pressure 29.73 in
Visibility 3.0 miles
Clouds Few 800 ft
Scattered Clouds 3100 ft
Overcast 3900 ft
Dew Point 51 °F
Humidity 99%
Rainfall 1.19 in
Snow Depth Not available.
7:34 AM 5:23 PM
Waxing Crescent, 41% visible
METAR KOQT 061153Z AUTO 00000KT 3SM RA BR FEW008 SCT031 OVC039 11/09 A2973 RMK AO2 SLP068 P0018 60067 70067 T01060094 10106 20094 56015

10-Day Weather Forecast

Almanac

Astronomy

Dec. 06, 2016 Rise Set
Actual Time
Civil Twilight
Nautical Twilight
Astronomical Twilight
Moon
Length of Visible Light
Length of Day
Tomorrow will be .
, % of the Moon is Illuminated

Today's Extremes

State Highs State Lows

Community

WunderPhotos

Upload Photos

1,955,936 photos uploaded!

WunderBlog® & News

Nearby

Air Quality

  Air Quality AQ Index Pollutant
Not available.

Snow Depth

Station Depth Elevation

Earthquake Activity

City Distance Mag. Time & Date
Minimum magnitude displayed is 2.5.

Coastal Water Temperatures

Place Temperature

Stations

Nearby Weather Stations

Station Location Temp. Windchill Dew Point Humidity Wind Precip. Elev Updated Type
                   

Watches & Warnings

There are currently no watches in effect.